ΕΜΥ, Εθνική Μετεωρολογική Υπηρεσία - Δελτία Καιρού, Προγνώσεις

ΑΕΡΟΝΑΥΤΙΛΙΑ

GREEK AIRPORTS CODES

TAF LGKA 180700Z 1809/1818 34010KT 9999 FEW025 SCT080 PROB40 TEMPO 1810/1817 4000 TSRA FEW018CB SCT025 BKN070=

EUROPEAN AIRPORTS CODES

LFPO 181930Z 10007KT CAVOK 25/16 Q1017 NOSIG=